• Join FlightAware (Why Join?)
  • Login
  • US Flag 
03:31PM EST


 

Airport Tracker/Info


-or-


 

Live Flight TrackerFlight Track Log ✈ DAL3720 ✈ 25-Apr-2013 ✈ KCLT - KCVG

Flight Track Log - Related Links

Times and Time Zones

All times are in EDT time to prevent confusion due to time zone crossing. See the DAL3720 flight status page for this flight to view local times or setup timezone preferences in your user account.

Time Position Orientation Groundspeed Altitude Reporting Facility
EDT Latitude Longitude Course Direction KTS MPH feet Rate Location/Type
08:08AM 35.2289 -80.9572 52° Northeast 143 165 1,800  Level Atlanta Center
08:09AM 35.2386 -80.9569 North 146 168 2,500 1,500 Climbing FAA TRACON SMA TRACON (SMA)
08:09AM 35.2556 -80.9669 334° Northwest 201 231 2,800 1,200 Climbing FAA TRACON SMA TRACON (SMA)
08:09AM 35.2703 -80.9817 321° Northwest 228 262 3,300 2,100 Climbing FAA TRACON SMA TRACON (SMA)
08:10AM 35.2914 -81.0011 323° Northwest 250 288 4,200 2,340 Climbing FAA TRACON SMA TRACON (SMA)
08:10AM 35.3139 -81.0044 353° North 272 313 4,900 2,220 Climbing FAA TRACON SMA TRACON (SMA)
08:10AM 35.3378 -80.9983 12° North 283 326 5,700 2,640 Climbing FAA TRACON SMA TRACON (SMA)
08:11AM 35.3622 -80.9928 11° North 290 334 6,600 3,480 Climbing FAA TRACON SMA TRACON (SMA)
08:11AM 35.3928 -80.9861 10° North 287 330 8,000 3,600 Climbing FAA TRACON SMA TRACON (SMA)
08:11AM 35.4164 -80.9803 11° North 284 327 9,000 2,400 Climbing FAA TRACON SMA TRACON (SMA)
08:12AM 35.4397 -80.9733 14° North 284 327 9,600 2,040 Climbing FAA TRACON SMA TRACON (SMA)
08:12AM 35.4703 -80.9639 14° North 293 337 10,400 1,440 Climbing FAA TRACON SMA TRACON (SMA)
08:12AM 35.4964 -80.9558 14° North 312 359 10,600 420 Climbing FAA TRACON SMA TRACON (SMA)
08:13AM 35.3127 -81.1206 52° Northeast  Level FlightAware Approximate
08:13AM 35.5244 -80.9469 14° North 337 388 10,700  Level FAA TRACON SMA TRACON (SMA)
08:13AM 35.5611 -80.9353 15° North 351 404 11,300 1,620 Climbing FAA TRACON SMA TRACON (SMA)
08:13AM 35.5911 -80.9256 15° North 358 412 11,800 1,320 Climbing FAA TRACON SMA TRACON (SMA)
08:14AM 35.6217 -80.9167 13° North 365 420 12,200 1,620 Climbing FAA TRACON SMA TRACON (SMA)
08:14AM 35.6603 -80.9039 15° North 375 432 12,900 1,980 Climbing FAA TRACON SMA TRACON (SMA)
08:14AM 35.6914 -80.8944 14° North 373 429 13,500 1,680 Climbing FAA TRACON SMA TRACON (SMA)
08:15AM 35.7228 -80.8867 11° North 374 430 14,000 1,320 Climbing FAA TRACON SMA TRACON (SMA)
08:15AM 35.7547 -80.8825 North 372 428 14,400 1,500 Climbing FAA TRACON SMA TRACON (SMA)
08:15AM 35.7911 -80.8964 343° North 357 411 15,000 1,500 Climbing FAA TRACON SMA TRACON (SMA)
08:16AM 35.8181 -80.9119 335° Northwest 354 407 15,400 1,200 Climbing FAA TRACON SMA TRACON (SMA)
08:16AM 35.8519 -80.9319 334° Northwest 352 405 15,800 1,140 Climbing FAA TRACON SMA TRACON (SMA)
08:16AM 35.8792 -80.9492 333° Northwest 355 409 16,200 1,440 Climbing FAA TRACON SMA TRACON (SMA)
08:17AM 35.9069 -80.9647 336° Northwest 355 409 16,800 1,500 Climbing FAA TRACON SMA TRACON (SMA)
08:17AM 35.9417 -80.9844 335° Northwest 355 409 17,200 900 Climbing FAA TRACON SMA TRACON (SMA)
08:17AM 35.9697 -81.0003 335° Northwest 358 412 17,400 720 Climbing FAA TRACON SMA TRACON (SMA)
08:18AM 35.9961 -81.0147 336° Northwest 362 417 17,700 1,200 Climbing FAA TRACON SMA TRACON (SMA)
08:18AM 36.0339 -81.0369 335° Northwest 364 419 18,200 1,320 Climbing FAA TRACON SMA TRACON (SMA)
08:18AM 36.0625 -81.0528 336° Northwest 364 419 18,600 720 Climbing FAA TRACON SMA TRACON (SMA)
08:19AM 36.0697 -81.0564 338° Northwest 364 419 18,700 960 Climbing FAA TRACON SMA TRACON (SMA)
08:19AM 36.1736 -81.1142 336° Northwest 361 415 19,800 1,080 Climbing Atlanta Center
08:20AM 36.2686 -81.1675 336° Northwest 366 421 20,800 720 Climbing Atlanta Center
08:21AM 36.3658 -81.2181 337° Northwest 366 421 21,300 720 Climbing Atlanta Center
08:22AM 36.4608 -81.2742 335° Northwest 379 436 22,300 960 Climbing Atlanta Center
08:23AM 36.4925 -81.3842 290° West 326 375 23,300 840 Climbing Atlanta Center
08:24AM 36.5158 -81.4944 285° West 331 381 24,000 300 Climbing Atlanta Center
08:25AM 36.5386 -81.5969 285° West 338 389 24,000  Level Atlanta Center
08:27AM 36.5939 -81.8414 286° West 339 390 24,000  Level Indianapolis Center
08:28AM 36.6186 -81.9558 285° West 341 392 24,000  Level Indianapolis Center
08:30AM 36.6444 -82.0686 286° West 339 390 24,000  Level Indianapolis Center
08:31AM 36.6683 -82.1814 285° West 338 389 24,000  Level Indianapolis Center
08:32AM 36.6983 -82.2919 289° West 335 386 24,000  Level Indianapolis Center
08:33AM 36.7778 -82.3739 320° Northwest 365 420 24,000  Level Indianapolis Center
08:34AM 36.8592 -82.4561 321° Northwest 374 430 24,000  Level Indianapolis Center
08:35AM 36.9522 -82.5494 321° Northwest 370 426 24,000  Level Indianapolis Center
08:36AM 37.0322 -82.6297 321° Northwest 371 427 24,000  Level Indianapolis Center
08:37AM 37.1114 -82.7106 321° Northwest 370 426 24,000  Level Indianapolis Center
08:38AM 37.1906 -82.7914 321° Northwest 369 425 24,000  Level Indianapolis Center
08:39AM 37.2700 -82.8722 321° Northwest 369 425 24,000 -420 Level Indianapolis Center
08:40AM 37.3631 -82.9672 321° Northwest 369 425 23,200 -1,140 Descending Indianapolis Center
08:41AM 37.4397 -83.0450 321° Northwest 358 412 21,700 -1,080 Descending Indianapolis Center
08:42AM 37.5122 -83.1208 320° Northwest 342 394 21,000 -360 Descending Indianapolis Center
08:43AM 37.5792 -83.2067 315° West 343 395 21,000 -420 Level Indianapolis Center
08:44AM 37.6353 -83.3036 306° West 342 394 20,200 -840 Descending Indianapolis Center
08:45AM 37.6908 -83.4003 306° West 340 391 19,300 -1,020 Descending Indianapolis Center
08:46AM 37.7767 -83.4864 322° Northwest 338 389 18,100 -900 Descending Indianapolis Center
08:47AM 37.8528 -83.5564 324° Northwest 338 389 17,500 -840 Descending Indianapolis Center
08:48AM 37.9272 -83.6278 323° Northwest 335 386 16,500 -1,020 Descending Indianapolis Center
08:49AM 38.0017 -83.6969 324° Northwest 331 381 15,500 -1,020 Descending Indianapolis Center
08:50AM 38.0753 -83.7672 323° Northwest 331 381 14,500 -1,020 Descending Indianapolis Center
08:51AM 38.1497 -83.8358 324° Northwest 330 380 13,500 -1,080 Descending Indianapolis Center
08:52AM 38.2319 -83.9128 324° Northwest 318 366 12,300 -1,080 Descending Indianapolis Center
08:53AM 38.3017 -83.9797 323° Northwest 315 362 11,300 -600 Descending Indianapolis Center
08:54AM 38.3739 -84.0469 324° Northwest 318 366 11,100 -120 Descending Indianapolis Center
08:55AM 38.4467 -84.1139 324° Northwest 321 369 11,100  Level Indianapolis Center
08:56AM 38.5233 -84.1725 329° Northwest 320 368 11,100  Level Indianapolis Center
08:57AM 38.5981 -84.2347 327° Northwest 318 366 11,100 -120 Level Indianapolis Center
08:58AM 38.6792 -84.2972 329° Northwest 320 368 10,900 -120 Descending Indianapolis Center
08:59AM 38.7553 -84.3581 328° Northwest 320 368 10,900  Level Indianapolis Center
09:00AM 38.8317 -84.4194 328° Northwest 320 368 10,900  Level Indianapolis Center
09:01AM 38.9072 -84.4800 328° Northwest 317 365 10,900 -300 Level Indianapolis Center
09:02AM 38.9500 -84.5000 340° North 272 313 10,500 -1,620 Descending Cincinnati TRACON
09:03AM 39.0000 -84.5500 322° Northwest 265 305 8,700 -2,040 Descending Cincinnati TRACON
09:04AM 39.1000 -84.5500 360° North 265 305 6,100 -2,100 Descending Cincinnati TRACON
09:04AM 39.1303 -84.5636 341° North 268 308 5,200 -1,080 Descending Indianapolis Center
09:06AM 39.1675 -84.6106 316° Northwest 229 264 4,500 -720 Descending Indianapolis Center